sensor_id;sensor_type;location;lat;lon;timestamp;P1;durP1;ratioP1;P2;durP2;ratioP2
2438;SDS011;14509;47.992;7.848;2023-12-14T05:08:09;1.93;;;1.83;;
2438;SDS011;14509;47.992;7.848;2023-12-14T05:10:10;2.97;;;2.30;;
2438;SDS011;14509;47.992;7.848;2023-12-14T05:12:12;2.30;;;1.80;;
2438;SDS011;14509;47.992;7.848;2023-12-14T05:14:13;3.27;;;2.17;;
2438;SDS011;14509;47.992;7.848;2023-12-14T05:16:16;3.07;;;2.43;;
2438;SDS011;14509;47.992;7.848;2023-12-14T05:18:18;3.00;;;2.00;;
2438;SDS011;14509;47.992;7.848;2023-12-14T05:20:21;4.00;;;2.27;;
2438;SDS011;14509;47.992;7.848;2023-12-14T05:22:22;2.60;;;2.10;;
2438;SDS011;14509;47.992;7.848;2023-12-14T05:24:26;1.80;;;1.70;;
2438;SDS011;14509;47.992;7.848;2023-12-14T05:26:28;3.17;;;2.50;;
2438;SDS011;14509;47.992;7.848;2023-12-14T05:28:29;2.33;;;2.03;;
2438;SDS011;14509;47.992;7.848;2023-12-14T05:30:31;3.87;;;1.77;;
2438;SDS011;14509;47.992;7.848;2023-12-14T05:32:33;2.30;;;2.13;;
2438;SDS011;14509;47.992;7.848;2023-12-14T05:34:34;4.30;;;2.40;;
2438;SDS011;14509;47.992;7.848;2023-12-14T05:36:36;2.53;;;2.30;;
2438;SDS011;14509;47.992;7.848;2023-12-14T05:38:38;1.93;;;1.50;;
2438;SDS011;14509;47.992;7.848;2023-12-14T05:40:42;3.23;;;2.30;;
2438;SDS011;14509;47.992;7.848;2023-12-14T05:42:44;3.17;;;2.90;;
2438;SDS011;14509;47.992;7.848;2023-12-14T05:44:46;2.70;;;2.50;;
2438;SDS011;14509;47.992;7.848;2023-12-14T05:46:48;1.80;;;1.70;;
2438;SDS011;14509;47.992;7.848;2023-12-14T05:48:50;5.20;;;2.50;;
2438;SDS011;14509;47.992;7.848;2023-12-14T05:50:52;2.67;;;2.47;;
2438;SDS011;14509;47.992;7.848;2023-12-14T05:52:53;2.47;;;2.27;;
2438;SDS011;14509;47.992;7.848;2023-12-14T05:54:55;2.30;;;2.10;;
2438;SDS011;14509;47.992;7.848;2023-12-14T05:56:59;3.93;;;2.00;;
2438;SDS011;14509;47.992;7.848;2023-12-14T05:59:01;3.63;;;2.40;;
2438;SDS011;14509;47.992;7.848;2023-12-14T06:01:02;2.30;;;2.00;;
2438;SDS011;14509;47.992;7.848;2023-12-14T06:03:04;5.57;;;1.77;;
2438;SDS011;14509;47.992;7.848;2023-12-14T06:05:06;2.97;;;1.97;;
2438;SDS011;14509;47.992;7.848;2023-12-14T06:07:09;3.20;;;2.30;;
2438;SDS011;14509;47.992;7.848;2023-12-14T06:09:10;2.13;;;2.03;;
2438;SDS011;14509;47.992;7.848;2023-12-14T06:11:11;4.00;;;2.10;;
2438;SDS011;14509;47.992;7.848;2023-12-14T06:13:15;3.13;;;2.57;;
2438;SDS011;14509;47.992;7.848;2023-12-14T06:15:17;2.33;;;2.00;;
2438;SDS011;14509;47.992;7.848;2023-12-14T06:17:19;3.93;;;2.93;;
2438;SDS011;14509;47.992;7.848;2023-12-14T06:19:20;1.73;;;1.63;;
2438;SDS011;14509;47.992;7.848;2023-12-14T06:21:22;2.67;;;2.47;;
2438;SDS011;14509;47.992;7.848;2023-12-14T06:23:26;4.40;;;2.83;;
2438;SDS011;14509;47.992;7.848;2023-12-14T06:25:28;2.57;;;2.37;;
2438;SDS011;14509;47.992;7.848;2023-12-14T06:27:30;3.97;;;2.37;;
2438;SDS011;14509;47.992;7.848;2023-12-14T06:29:33;2.73;;;2.53;;
2438;SDS011;14509;47.992;7.848;2023-12-14T06:31:35;2.47;;;2.00;;
2438;SDS011;14509;47.992;7.848;2023-12-14T06:33:36;4.03;;;2.27;;
2438;SDS011;14509;47.992;7.848;2023-12-14T06:35:38;3.27;;;2.47;;
2438;SDS011;14509;47.992;7.848;2023-12-14T06:37:40;4.70;;;3.00;;
2438;SDS011;14509;47.992;7.848;2023-12-14T06:39:43;3.07;;;2.77;;
2438;SDS011;14509;47.992;7.848;2023-12-14T06:41:44;4.67;;;3.23;;
2438;SDS011;14509;47.992;7.848;2023-12-14T06:43:46;3.90;;;2.83;;
2438;SDS011;14509;47.992;7.848;2023-12-14T06:45:50;3.67;;;2.97;;
2438;SDS011;14509;47.992;7.848;2023-12-14T06:47:52;3.10;;;2.83;;
2438;SDS011;14509;47.992;7.848;2023-12-14T06:49:54;3.30;;;3.00;;
2438;SDS011;14509;47.992;7.848;2023-12-14T06:51:57;3.13;;;2.90;;
2438;SDS011;14509;47.992;7.848;2023-12-14T06:53:58;4.23;;;2.23;;
2438;SDS011;14509;47.992;7.848;2023-12-14T06:55:59;3.00;;;1.90;;
2438;SDS011;14509;47.992;7.848;2023-12-14T06:58:01;3.83;;;2.00;;
2438;SDS011;14509;47.992;7.848;2023-12-14T07:00:04;1.57;;;1.40;;
2438;SDS011;14509;47.992;7.848;2023-12-14T07:02:08;2.43;;;1.50;;
2438;SDS011;14509;47.992;7.848;2023-12-14T07:04:10;2.80;;;1.27;;
2438;SDS011;14509;47.992;7.848;2023-12-14T07:06:12;1.63;;;1.47;;
2438;SDS011;14509;47.992;7.848;2023-12-14T07:08:15;1.43;;;1.33;;
2438;SDS011;14509;47.992;7.848;2023-12-14T07:10:16;0.93;;;0.90;;
2438;SDS011;14509;47.992;7.848;2023-12-14T07:12:18;1.20;;;1.10;;
2438;SDS011;14509;47.992;7.848;2023-12-14T07:14:19;2.10;;;1.53;;
2438;SDS011;14509;47.992;7.848;2023-12-14T07:16:21;3.70;;;1.27;;
2438;SDS011;14509;47.992;7.848;2023-12-14T07:18:24;2.23;;;1.30;;
2438;SDS011;14509;47.992;7.848;2023-12-14T07:20:25;1.37;;;1.10;;
2438;SDS011;14509;47.992;7.848;2023-12-14T07:22:27;0.93;;;0.83;;
2438;SDS011;14509;47.992;7.848;2023-12-14T07:24:29;1.97;;;1.50;;
2438;SDS011;14509;47.992;7.848;2023-12-14T07:26:32;0.83;;;0.60;;
2438;SDS011;14509;47.992;7.848;2023-12-14T07:28:33;4.77;;;1.30;;
2438;SDS011;14509;47.992;7.848;2023-12-14T07:30:35;1.40;;;1.00;;
2438;SDS011;14509;47.992;7.848;2023-12-14T07:32:37;2.07;;;1.13;;
2438;SDS011;14509;47.992;7.848;2023-12-14T07:34:41;1.17;;;0.80;;
2438;SDS011;14509;47.992;7.848;2023-12-14T07:36:44;1.83;;;1.00;;
2438;SDS011;14509;47.992;7.848;2023-12-14T07:38:46;1.17;;;1.07;;
2438;SDS011;14509;47.992;7.848;2023-12-14T07:40:48;1.17;;;1.07;;
2438;SDS011;14509;47.992;7.848;2023-12-14T07:42:50;1.30;;;1.20;;
2438;SDS011;14509;47.992;7.848;2023-12-14T07:44:52;1.07;;;0.93;;
2438;SDS011;14509;47.992;7.848;2023-12-14T07:46:54;3.07;;;1.10;;
2438;SDS011;14509;47.992;7.848;2023-12-14T07:48:56;1.23;;;1.13;;
2438;SDS011;14509;47.992;7.848;2023-12-14T07:50:59;1.67;;;1.20;;
2438;SDS011;14509;47.992;7.848;2023-12-14T07:53:01;1.20;;;1.10;;
2438;SDS011;14509;47.992;7.848;2023-12-14T07:55:03;1.30;;;0.90;;
2438;SDS011;14509;47.992;7.848;2023-12-14T07:57:05;1.60;;;1.27;;
2438;SDS011;14509;47.992;7.848;2023-12-14T07:59:07;1.17;;;1.07;;
2438;SDS011;14509;47.992;7.848;2023-12-14T08:01:10;1.20;;;1.10;;
2438;SDS011;14509;47.992;7.848;2023-12-14T08:03:11;1.67;;;1.27;;
2438;SDS011;14509;47.992;7.848;2023-12-14T08:05:13;1.60;;;1.03;;
2438;SDS011;14509;47.992;7.848;2023-12-14T08:07:18;1.53;;;0.80;;
2438;SDS011;14509;47.992;7.848;2023-12-14T08:09:20;1.13;;;1.03;;
2438;SDS011;14509;47.992;7.848;2023-12-14T08:11:22;1.10;;;0.80;;
2438;SDS011;14509;47.992;7.848;2023-12-14T08:13:24;0.77;;;0.77;;
2438;SDS011;14509;47.992;7.848;2023-12-14T08:15:26;6.73;;;1.90;;
2438;SDS011;14509;47.992;7.848;2023-12-14T08:17:28;1.50;;;1.10;;
2438;SDS011;14509;47.992;7.848;2023-12-14T08:19:30;1.33;;;1.23;;
2438;SDS011;14509;47.992;7.848;2023-12-14T08:21:32;1.87;;;1.27;;
2438;SDS011;14509;47.992;7.848;2023-12-14T08:23:35;1.30;;;1.20;;
2438;SDS011;14509;47.992;7.848;2023-12-14T08:25:37;1.10;;;0.90;;
2438;SDS011;14509;47.992;7.848;2023-12-14T08:27:39;1.67;;;1.30;;
2438;SDS011;14509;47.992;7.848;2023-12-14T08:29:41;2.20;;;1.53;;
2438;SDS011;14509;47.992;7.848;2023-12-14T08:31:45;0.87;;;0.87;;
2438;SDS011;14509;47.992;7.848;2023-12-14T08:33:47;1.53;;;1.33;;
2438;SDS011;14509;47.992;7.848;2023-12-14T08:35:49;1.80;;;1.70;;
2438;SDS011;14509;47.992;7.848;2023-12-14T08:37:51;1.67;;;1.53;;
2438;SDS011;14509;47.992;7.848;2023-12-14T08:39:53;11.83;;;2.87;;
2438;SDS011;14509;47.992;7.848;2023-12-14T08:41:56;1.50;;;1.40;;
2438;SDS011;14509;47.992;7.848;2023-12-14T08:43:57;6.70;;;1.80;;
2438;SDS011;14509;47.992;7.848;2023-12-14T08:45:59;2.80;;;2.47;;
2438;SDS011;14509;47.992;7.848;2023-12-14T08:48:01;6.07;;;2.70;;
2438;SDS011;14509;47.992;7.848;2023-12-14T08:50:03;2.80;;;2.40;;
2438;SDS011;14509;47.992;7.848;2023-12-14T08:52:06;2.20;;;2.00;;
2438;SDS011;14509;47.992;7.848;2023-12-14T08:54:10;5.10;;;3.20;;
2438;SDS011;14509;47.992;7.848;2023-12-14T08:56:14;3.77;;;2.33;;
2438;SDS011;14509;47.992;7.848;2023-12-14T08:58:16;3.03;;;2.07;;
2438;SDS011;14509;47.992;7.848;2023-12-14T09:00:18;2.40;;;2.20;;
2438;SDS011;14509;47.992;7.848;2023-12-14T09:02:21;3.73;;;2.77;;
2438;SDS011;14509;47.992;7.848;2023-12-14T09:04:23;3.50;;;3.20;;
2438;SDS011;14509;47.992;7.848;2023-12-14T09:06:25;3.40;;;2.90;;
2438;SDS011;14509;47.992;7.848;2023-12-14T09:08:28;3.20;;;2.50;;
2438;SDS011;14509;47.992;7.848;2023-12-14T09:10:30;3.10;;;2.30;;
2438;SDS011;14509;47.992;7.848;2023-12-14T09:12:34;3.83;;;2.20;;
2438;SDS011;14509;47.992;7.848;2023-12-14T09:14:37;2.90;;;2.60;;
2438;SDS011;14509;47.992;7.848;2023-12-14T09:16:41;3.07;;;2.00;;
2438;SDS011;14509;47.992;7.848;2023-12-14T09:18:43;2.90;;;2.00;;
2438;SDS011;14509;47.992;7.848;2023-12-14T09:20:46;1.90;;;1.67;;
2438;SDS011;14509;47.992;7.848;2023-12-14T09:22:47;3.30;;;2.60;;
2438;SDS011;14509;47.992;7.848;2023-12-14T09:24:49;2.43;;;2.33;;
2438;SDS011;14509;47.992;7.848;2023-12-14T09:26:51;2.17;;;1.97;;
2438;SDS011;14509;47.992;7.848;2023-12-14T09:28:55;2.80;;;2.13;;
2438;SDS011;14509;47.992;7.848;2023-12-14T09:30:58;2.03;;;1.70;;
2438;SDS011;14509;47.992;7.848;2023-12-14T09:33:00;4.63;;;2.27;;
2438;SDS011;14509;47.992;7.848;2023-12-14T09:35:02;2.43;;;1.60;;
2438;SDS011;14509;47.992;7.848;2023-12-14T09:37:04;2.40;;;1.20;;
2438;SDS011;14509;47.992;7.848;2023-12-14T09:39:06;2.83;;;2.07;;
2438;SDS011;14509;47.992;7.848;2023-12-14T09:41:10;2.37;;;1.80;;
2438;SDS011;14509;47.992;7.848;2023-12-14T09:43:12;2.80;;;2.13;;
2438;SDS011;14509;47.992;7.848;2023-12-14T09:45:18;2.33;;;1.57;;
2438;SDS011;14509;47.992;7.848;2023-12-14T09:47:25;2.30;;;1.23;;
2438;SDS011;14509;47.992;7.848;2023-12-14T09:49:27;1.83;;;1.53;;
2438;SDS011;14509;47.992;7.848;2023-12-14T09:51:31;2.43;;;1.80;;
2438;SDS011;14509;47.992;7.848;2023-12-14T09:53:33;1.43;;;1.33;;
2438;SDS011;14509;47.992;7.848;2023-12-14T09:55:35;2.93;;;2.50;;
2438;SDS011;14509;47.992;7.848;2023-12-14T09:57:36;2.93;;;1.80;;
2438;SDS011;14509;47.992;7.848;2023-12-14T09:59:38;2.20;;;1.63;;
2438;SDS011;14509;47.992;7.848;2023-12-14T10:01:44;2.47;;;1.50;;
2438;SDS011;14509;47.992;7.848;2023-12-14T10:03:45;2.30;;;1.70;;
2438;SDS011;14509;47.992;7.848;2023-12-14T10:05:51;2.23;;;1.30;;
2438;SDS011;14509;47.992;7.848;2023-12-14T10:08:08;2.70;;;2.20;;
2438;SDS011;14509;47.992;7.848;2023-12-14T10:10:13;2.13;;;1.30;;
2438;SDS011;14509;47.992;7.848;2023-12-14T10:12:18;3.00;;;1.67;;
2438;SDS011;14509;47.992;7.848;2023-12-14T10:14:29;3.73;;;1.77;;
2438;SDS011;14509;47.992;7.848;2023-12-14T10:16:31;3.23;;;1.37;;
2438;SDS011;14509;47.992;7.848;2023-12-14T10:18:35;1.90;;;1.30;;
2438;SDS011;14509;47.992;7.848;2023-12-14T10:20:39;1.67;;;1.57;;
2438;SDS011;14509;47.992;7.848;2023-12-14T10:22:45;1.70;;;1.60;;
2438;SDS011;14509;47.992;7.848;2023-12-14T10:24:49;2.50;;;1.40;;
2438;SDS011;14509;47.992;7.848;2023-12-14T10:26:51;1.63;;;1.43;;
2438;SDS011;14509;47.992;7.848;2023-12-14T10:42:02;1.57;;;1.47;;
2438;SDS011;14509;47.992;7.848;2023-12-14T10:44:05;2.43;;;1.50;;
2438;SDS011;14509;47.992;7.848;2023-12-14T10:46:09;1.80;;;1.70;;
2438;SDS011;14509;47.992;7.848;2023-12-14T10:48:12;2.63;;;1.70;;
2438;SDS011;14509;47.992;7.848;2023-12-14T10:50:14;1.97;;;1.77;;
2438;SDS011;14509;47.992;7.848;2023-12-14T10:52:15;3.03;;;2.27;;
2438;SDS011;14509;47.992;7.848;2023-12-14T10:54:18;8.37;;;4.57;;
2438;SDS011;14509;47.992;7.848;2023-12-14T10:56:21;2.40;;;2.00;;
2438;SDS011;14509;47.992;7.848;2023-12-14T10:58:26;2.47;;;2.27;;
2438;SDS011;14509;47.992;7.848;2023-12-14T11:00:33;3.63;;;2.03;;
2438;SDS011;14509;47.992;7.848;2023-12-14T11:02:39;2.50;;;2.30;;
2438;SDS011;14509;47.992;7.848;2023-12-14T11:04:53;3.40;;;2.73;;
2438;SDS011;14509;47.992;7.848;2023-12-14T15:56:52;3.90;;;2.43;;
2438;SDS011;14509;47.992;7.848;2023-12-14T15:58:53;6.37;;;2.83;;
2438;SDS011;14509;47.992;7.848;2023-12-14T16:00:56;5.33;;;2.83;;
2438;SDS011;14509;47.992;7.848;2023-12-14T16:02:58;11.83;;;3.40;;
2438;SDS011;14509;47.992;7.848;2023-12-14T16:05:00;4.53;;;3.30;;
2438;SDS011;14509;47.992;7.848;2023-12-14T16:07:02;5.00;;;4.30;;
2438;SDS011;14509;47.992;7.848;2023-12-14T16:09:05;7.70;;;3.63;;
2438;SDS011;14509;47.992;7.848;2023-12-14T16:11:08;3.37;;;3.07;;
2438;SDS011;14509;47.992;7.848;2023-12-14T16:13:11;3.43;;;2.80;;
2438;SDS011;14509;47.992;7.848;2023-12-14T16:15:13;5.47;;;3.40;;
2438;SDS011;14509;47.992;7.848;2023-12-14T16:17:15;6.53;;;3.70;;
2438;SDS011;14509;47.992;7.848;2023-12-14T16:19:17;6.00;;;3.20;;
2438;SDS011;14509;47.992;7.848;2023-12-14T16:21:21;5.90;;;3.77;;
2438;SDS011;14509;47.992;7.848;2023-12-14T16:23:22;5.37;;;4.00;;
2438;SDS011;14509;47.992;7.848;2023-12-14T16:25:24;4.17;;;3.77;;
2438;SDS011;14509;47.992;7.848;2023-12-14T16:27:28;4.57;;;3.50;;
2438;SDS011;14509;47.992;7.848;2023-12-14T16:29:30;4.30;;;3.90;;
2438;SDS011;14509;47.992;7.848;2023-12-14T16:31:32;6.07;;;4.00;;
2438;SDS011;14509;47.992;7.848;2023-12-14T16:33:39;5.00;;;3.70;;
2438;SDS011;14509;47.992;7.848;2023-12-14T16:35:41;6.03;;;4.13;;
2438;SDS011;14509;47.992;7.848;2023-12-14T16:37:44;6.13;;;4.50;;
2438;SDS011;14509;47.992;7.848;2023-12-14T16:39:46;4.53;;;4.07;;
2438;SDS011;14509;47.992;7.848;2023-12-14T16:41:48;4.53;;;3.70;;
2438;SDS011;14509;47.992;7.848;2023-12-14T16:43:51;5.20;;;3.80;;
2438;SDS011;14509;47.992;7.848;2023-12-14T16:45:52;3.93;;;3.43;;
2438;SDS011;14509;47.992;7.848;2023-12-14T16:47:56;5.37;;;3.87;;
2438;SDS011;14509;47.992;7.848;2023-12-14T16:49:57;6.50;;;3.93;;
2438;SDS011;14509;47.992;7.848;2023-12-14T16:51:58;4.47;;;4.07;;
2438;SDS011;14509;47.992;7.848;2023-12-14T16:54:00;6.67;;;4.33;;
2438;SDS011;14509;47.992;7.848;2023-12-14T16:56:03;5.73;;;3.90;;
2438;SDS011;14509;47.992;7.848;2023-12-14T16:58:05;4.30;;;3.60;;
2438;SDS011;14509;47.992;7.848;2023-12-14T17:00:09;7.83;;;4.63;;
2438;SDS011;14509;47.992;7.848;2023-12-14T17:02:11;6.47;;;4.20;;
2438;SDS011;14509;47.992;7.848;2023-12-14T17:04:13;6.10;;;5.30;;
2438;SDS011;14509;47.992;7.848;2023-12-14T17:08:29;5.57;;;5.03;;
2438;SDS011;14509;47.992;7.848;2023-12-14T17:10:31;5.57;;;4.47;;
2438;SDS011;14509;47.992;7.848;2023-12-14T17:12:33;9.03;;;5.70;;
2438;SDS011;14509;47.992;7.848;2023-12-14T17:14:34;6.23;;;4.57;;
2438;SDS011;14509;47.992;7.848;2023-12-14T17:16:38;5.10;;;4.40;;
2438;SDS011;14509;47.992;7.848;2023-12-14T17:18:39;8.87;;;6.10;;
2438;SDS011;14509;47.992;7.848;2023-12-14T17:20:41;8.27;;;5.93;;
2438;SDS011;14509;47.992;7.848;2023-12-14T17:22:43;7.60;;;5.70;;
2438;SDS011;14509;47.992;7.848;2023-12-14T17:24:45;10.30;;;8.70;;
2438;SDS011;14509;47.992;7.848;2023-12-14T17:26:46;7.40;;;5.60;;
2438;SDS011;14509;47.992;7.848;2023-12-14T17:28:49;7.60;;;5.90;;
2438;SDS011;14509;47.992;7.848;2023-12-14T17:30:52;4.90;;;4.00;;
2438;SDS011;14509;47.992;7.848;2023-12-14T17:32:55;7.10;;;5.30;;
2438;SDS011;14509;47.992;7.848;2023-12-14T17:34:57;8.07;;;5.90;;
2438;SDS011;14509;47.992;7.848;2023-12-14T17:36:59;7.67;;;6.97;;
2438;SDS011;14509;47.992;7.848;2023-12-14T17:39:01;8.50;;;6.40;;
2438;SDS011;14509;47.992;7.848;2023-12-14T17:41:02;10.20;;;6.47;;
2438;SDS011;14509;47.992;7.848;2023-12-14T17:43:05;11.47;;;7.57;;
2438;SDS011;14509;47.992;7.848;2023-12-14T17:45:07;10.50;;;8.30;;
2438;SDS011;14509;47.992;7.848;2023-12-14T17:47:10;7.10;;;6.10;;
2438;SDS011;14509;47.992;7.848;2023-12-14T17:49:13;9.20;;;6.73;;
2438;SDS011;14509;47.992;7.848;2023-12-14T17:51:15;11.10;;;7.80;;
2438;SDS011;14509;47.992;7.848;2023-12-14T17:53:17;11.90;;;6.40;;
2438;SDS011;14509;47.992;7.848;2023-12-14T17:55:17;16.10;;;8.00;;
2438;SDS011;14509;47.992;7.848;2023-12-14T17:57:19;10.93;;;7.80;;
2438;SDS011;14509;47.992;7.848;2023-12-14T17:59:21;9.20;;;8.23;;
2438;SDS011;14509;47.992;7.848;2023-12-14T18:01:23;13.17;;;9.50;;
2438;SDS011;14509;47.992;7.848;2023-12-14T18:03:25;13.50;;;8.87;;
2438;SDS011;14509;47.992;7.848;2023-12-14T18:05:29;10.57;;;8.00;;
2438;SDS011;14509;47.992;7.848;2023-12-14T18:07:31;17.53;;;10.27;;
2438;SDS011;14509;47.992;7.848;2023-12-14T18:09:33;7.60;;;6.33;;
2438;SDS011;14509;47.992;7.848;2023-12-14T18:11:35;11.67;;;6.77;;
2438;SDS011;14509;47.992;7.848;2023-12-14T18:13:36;6.90;;;6.20;;
2438;SDS011;14509;47.992;7.848;2023-12-14T18:15:39;10.27;;;6.27;;
2438;SDS011;14509;47.992;7.848;2023-12-14T18:17:41;6.40;;;5.57;;
2438;SDS011;14509;47.992;7.848;2023-12-14T18:19:43;8.50;;;6.67;;
2438;SDS011;14509;47.992;7.848;2023-12-14T18:21:46;12.30;;;9.20;;
2438;SDS011;14509;47.992;7.848;2023-12-14T18:23:49;6.97;;;5.10;;
2438;SDS011;14509;47.992;7.848;2023-12-14T18:25:50;12.00;;;5.40;;
2438;SDS011;14509;47.992;7.848;2023-12-14T18:27:52;8.40;;;5.67;;
2438;SDS011;14509;47.992;7.848;2023-12-14T18:29:59;8.23;;;5.00;;
2438;SDS011;14509;47.992;7.848;2023-12-14T18:32:01;6.30;;;4.40;;
2438;SDS011;14509;47.992;7.848;2023-12-14T18:34:03;7.10;;;4.07;;
2438;SDS011;14509;47.992;7.848;2023-12-14T18:36:07;5.73;;;3.90;;
2438;SDS011;14509;47.992;7.848;2023-12-14T18:38:10;6.30;;;4.07;;
2438;SDS011;14509;47.992;7.848;2023-12-14T18:40:11;4.60;;;3.87;;
2438;SDS011;14509;47.992;7.848;2023-12-14T18:42:13;7.10;;;4.60;;
2438;SDS011;14509;47.992;7.848;2023-12-14T18:44:15;5.30;;;4.60;;
2438;SDS011;14509;47.992;7.848;2023-12-14T18:46:18;8.63;;;5.00;;
2438;SDS011;14509;47.992;7.848;2023-12-14T18:48:19;4.87;;;4.37;;
2438;SDS011;14509;47.992;7.848;2023-12-14T18:50:21;7.30;;;4.20;;
2438;SDS011;14509;47.992;7.848;2023-12-14T18:52:22;4.97;;;4.50;;
2438;SDS011;14509;47.992;7.848;2023-12-14T18:54:27;5.40;;;4.47;;
2438;SDS011;14509;47.992;7.848;2023-12-14T18:56:29;6.10;;;3.70;;
2438;SDS011;14509;47.992;7.848;2023-12-14T18:58:31;7.00;;;4.80;;
2438;SDS011;14509;47.992;7.848;2023-12-14T19:00:32;6.97;;;4.90;;
2438;SDS011;14509;47.992;7.848;2023-12-14T19:02:34;7.10;;;6.40;;
2438;SDS011;14509;47.992;7.848;2023-12-14T19:04:39;11.63;;;7.83;;
2438;SDS011;14509;47.992;7.848;2023-12-14T19:06:41;8.03;;;6.70;;
2438;SDS011;14509;47.992;7.848;2023-12-14T19:08:42;7.57;;;6.57;;
2438;SDS011;14509;47.992;7.848;2023-12-14T19:10:46;11.73;;;7.10;;
2438;SDS011;14509;47.992;7.848;2023-12-14T19:12:48;8.90;;;6.50;;
2438;SDS011;14509;47.992;7.848;2023-12-14T19:14:50;10.60;;;6.90;;
2438;SDS011;14509;47.992;7.848;2023-12-14T19:16:52;9.50;;;6.47;;
2438;SDS011;14509;47.992;7.848;2023-12-14T19:18:55;9.43;;;6.60;;
2438;SDS011;14509;47.992;7.848;2023-12-14T19:20:57;8.03;;;5.90;;
2438;SDS011;14509;47.992;7.848;2023-12-14T19:22:59;7.77;;;5.03;;
2438;SDS011;14509;47.992;7.848;2023-12-14T19:25:01;8.20;;;4.90;;
2438;SDS011;14509;47.992;7.848;2023-12-14T19:27:04;5.93;;;4.70;;
2438;SDS011;14509;47.992;7.848;2023-12-14T19:29:06;6.33;;;4.23;;
2438;SDS011;14509;47.992;7.848;2023-12-14T19:31:08;5.60;;;4.07;;
2438;SDS011;14509;47.992;7.848;2023-12-14T19:33:10;5.67;;;4.70;;
2438;SDS011;14509;47.992;7.848;2023-12-14T19:35:12;8.83;;;5.00;;
2438;SDS011;14509;47.992;7.848;2023-12-14T19:37:13;5.00;;;4.20;;
2438;SDS011;14509;47.992;7.848;2023-12-14T19:39:15;8.30;;;5.23;;
2438;SDS011;14509;47.992;7.848;2023-12-14T19:41:18;8.63;;;5.07;;
2438;SDS011;14509;47.992;7.848;2023-12-14T19:43:22;7.60;;;5.57;;
2438;SDS011;14509;47.992;7.848;2023-12-14T19:45:23;8.00;;;6.00;;
2438;SDS011;14509;47.992;7.848;2023-12-14T19:47:25;7.83;;;5.20;;
2438;SDS011;14509;47.992;7.848;2023-12-14T19:49:26;7.40;;;5.60;;
2438;SDS011;14509;47.992;7.848;2023-12-14T19:51:28;8.47;;;4.73;;
2438;SDS011;14509;47.992;7.848;2023-12-14T19:53:30;7.13;;;5.50;;
2438;SDS011;14509;47.992;7.848;2023-12-14T19:55:32;5.77;;;5.17;;
2438;SDS011;14509;47.992;7.848;2023-12-14T19:57:34;10.40;;;6.50;;
2438;SDS011;14509;47.992;7.848;2023-12-14T19:59:38;9.13;;;5.37;;
2438;SDS011;14509;47.992;7.848;2023-12-14T20:01:40;8.73;;;5.60;;
2438;SDS011;14509;47.992;7.848;2023-12-14T20:03:42;10.50;;;6.87;;
2438;SDS011;14509;47.992;7.848;2023-12-14T20:05:44;11.83;;;6.27;;
2438;SDS011;14509;47.992;7.848;2023-12-14T20:07:46;9.30;;;7.10;;
2438;SDS011;14509;47.992;7.848;2023-12-14T20:09:49;8.90;;;5.53;;
2438;SDS011;14509;47.992;7.848;2023-12-14T20:11:53;7.73;;;5.53;;
2438;SDS011;14509;47.992;7.848;2023-12-14T20:13:55;13.13;;;7.23;;
2438;SDS011;14509;47.992;7.848;2023-12-14T20:15:57;11.60;;;7.93;;
2438;SDS011;14509;47.992;7.848;2023-12-14T20:17:59;9.30;;;6.40;;
2438;SDS011;14509;47.992;7.848;2023-12-14T20:20:01;11.67;;;7.67;;
2438;SDS011;14509;47.992;7.848;2023-12-14T20:22:04;11.47;;;7.70;;
2438;SDS011;14509;47.992;7.848;2023-12-14T20:24:06;9.57;;;7.13;;
2438;SDS011;14509;47.992;7.848;2023-12-14T20:26:08;9.20;;;7.57;;
2438;SDS011;14509;47.992;7.848;2023-12-14T20:28:11;13.13;;;7.43;;
2438;SDS011;14509;47.992;7.848;2023-12-14T20:30:13;14.30;;;8.37;;
2438;SDS011;14509;47.992;7.848;2023-12-14T20:32:17;9.90;;;7.97;;
2438;SDS011;14509;47.992;7.848;2023-12-14T20:34:18;10.20;;;8.00;;
2438;SDS011;14509;47.992;7.848;2023-12-14T20:36:19;11.30;;;7.03;;
2438;SDS011;14509;47.992;7.848;2023-12-14T20:38:21;9.70;;;6.60;;
2438;SDS011;14509;47.992;7.848;2023-12-14T20:40:23;10.00;;;7.43;;
2438;SDS011;14509;47.992;7.848;2023-12-14T20:42:26;14.23;;;8.10;;
2438;SDS011;14509;47.992;7.848;2023-12-14T20:44:28;9.57;;;7.27;;
2438;SDS011;14509;47.992;7.848;2023-12-14T20:46:30;17.20;;;11.50;;
2438;SDS011;14509;47.992;7.848;2023-12-14T20:48:34;10.67;;;7.77;;
2438;SDS011;14509;47.992;7.848;2023-12-14T20:50:39;8.87;;;7.77;;
2438;SDS011;14509;47.992;7.848;2023-12-14T20:52:41;13.97;;;7.50;;
2438;SDS011;14509;47.992;7.848;2023-12-14T20:54:43;11.50;;;6.97;;
2438;SDS011;14509;47.992;7.848;2023-12-14T20:56:45;13.10;;;8.30;;
2438;SDS011;14509;47.992;7.848;2023-12-14T20:58:47;11.30;;;7.63;;
2438;SDS011;14509;47.992;7.848;2023-12-14T21:00:49;9.50;;;6.70;;
2438;SDS011;14509;47.992;7.848;2023-12-14T21:02:51;17.30;;;7.30;;
2438;SDS011;14509;47.992;7.848;2023-12-14T21:04:54;11.57;;;7.20;;
2438;SDS011;14509;47.992;7.848;2023-12-14T21:06:55;10.87;;;6.70;;
2438;SDS011;14509;47.992;7.848;2023-12-14T21:08:57;10.77;;;6.37;;
2438;SDS011;14509;47.992;7.848;2023-12-14T21:10:59;11.70;;;6.87;;
2438;SDS011;14509;47.992;7.848;2023-12-14T21:13:00;10.60;;;7.13;;
2438;SDS011;14509;47.992;7.848;2023-12-14T21:15:02;12.90;;;6.50;;
2438;SDS011;14509;47.992;7.848;2023-12-14T21:17:05;8.47;;;5.67;;
2438;SDS011;14509;47.992;7.848;2023-12-14T21:19:07;8.10;;;5.37;;
2438;SDS011;14509;47.992;7.848;2023-12-14T21:21:10;9.30;;;6.33;;
2438;SDS011;14509;47.992;7.848;2023-12-14T21:23:12;8.73;;;5.78;;
2438;SDS011;14509;47.992;7.848;2023-12-14T21:25:14;8.30;;;5.40;;
2438;SDS011;14509;47.992;7.848;2023-12-14T21:27:18;9.30;;;5.10;;
2438;SDS011;14509;47.992;7.848;2023-12-14T21:29:38;10.53;;;5.47;;
2438;SDS011;14509;47.992;7.848;2023-12-14T21:31:40;6.83;;;4.83;;
2438;SDS011;14509;47.992;7.848;2023-12-14T21:33:42;11.77;;;7.23;;
2438;SDS011;14509;47.992;7.848;2023-12-14T21:35:44;9.07;;;5.17;;
2438;SDS011;14509;47.992;7.848;2023-12-14T21:37:47;11.50;;;5.83;;
2438;SDS011;14509;47.992;7.848;2023-12-14T21:39:49;10.97;;;5.20;;
2438;SDS011;14509;47.992;7.848;2023-12-14T21:41:51;5.47;;;4.90;;
2438;SDS011;14509;47.992;7.848;2023-12-14T21:43:53;7.93;;;5.27;;
2438;SDS011;14509;47.992;7.848;2023-12-14T21:45:55;9.07;;;6.03;;
2438;SDS011;14509;47.992;7.848;2023-12-14T21:47:57;6.70;;;4.67;;
2438;SDS011;14509;47.992;7.848;2023-12-14T21:49:59;6.53;;;5.40;;
2438;SDS011;14509;47.992;7.848;2023-12-14T21:52:00;7.00;;;5.07;;
2438;SDS011;14509;47.992;7.848;2023-12-14T21:54:03;6.33;;;4.90;;
2438;SDS011;14509;47.992;7.848;2023-12-14T21:56:05;7.90;;;4.73;;
2438;SDS011;14509;47.992;7.848;2023-12-14T21:58:08;8.77;;;5.10;;
2438;SDS011;14509;47.992;7.848;2023-12-14T22:00:10;9.47;;;4.60;;
2438;SDS011;14509;47.992;7.848;2023-12-14T22:02:11;6.73;;;5.90;;
2438;SDS011;14509;47.992;7.848;2023-12-14T22:04:13;7.50;;;5.07;;
2438;SDS011;14509;47.992;7.848;2023-12-14T22:06:14;8.33;;;4.90;;
2438;SDS011;14509;47.992;7.848;2023-12-14T22:08:17;10.30;;;5.40;;
2438;SDS011;14509;47.992;7.848;2023-12-14T22:10:20;6.87;;;5.50;;
2438;SDS011;14509;47.992;7.848;2023-12-14T22:12:21;7.90;;;5.13;;
2438;SDS011;14509;47.992;7.848;2023-12-14T22:14:23;9.80;;;5.33;;
2438;SDS011;14509;47.992;7.848;2023-12-14T22:16:24;4.90;;;3.87;;
2438;SDS011;14509;47.992;7.848;2023-12-14T22:18:25;6.53;;;4.00;;
2438;SDS011;14509;47.992;7.848;2023-12-14T22:20:27;8.37;;;5.73;;
2438;SDS011;14509;47.992;7.848;2023-12-14T22:22:29;7.63;;;4.97;;
2438;SDS011;14509;47.992;7.848;2023-12-14T22:24:31;5.57;;;4.40;;
2438;SDS011;14509;47.992;7.848;2023-12-14T22:26:34;6.13;;;4.40;;
2438;SDS011;14509;47.992;7.848;2023-12-14T22:28:36;5.00;;;4.50;;
2438;SDS011;14509;47.992;7.848;2023-12-14T22:30:38;5.07;;;4.37;;
2438;SDS011;14509;47.992;7.848;2023-12-14T22:32:40;6.17;;;4.10;;
2438;SDS011;14509;47.992;7.848;2023-12-14T22:34:42;4.50;;;4.07;;
2438;SDS011;14509;47.992;7.848;2023-12-14T22:36:44;6.53;;;4.37;;
2438;SDS011;14509;47.992;7.848;2023-12-14T22:38:46;3.60;;;3.10;;
2438;SDS011;14509;47.992;7.848;2023-12-14T22:40:47;6.23;;;3.87;;